Terminal Aerodrome Forecast
Issued by NWS Caribou, ME

Home | Current Version | Previous Version | Text Only | Print | Product List | Glossary On
Versions: 1 2 3 4 5 6 7 8 9 10 11 12 13 14 15 16 17 18 19 20 21
000
FTUS41 KCAR 220500 RRA
TAFCAR
TAF
KCAR 220553Z 2206/2306 03007KT P6SM OVC060
     FM221600 04011KT P6SM BKN050
     FM222100 05013KT P6SM BKN030
     FM230000 05012KT 3SM -RA OVC020
     FM230100 05012KT P6SM OVC020=

USA.gov is the U.S. government's official web portal to all federal, state and local government web resources and services.